createdAt,value
2022-09-01T00:00:04.416Z,99707.19
2022-09-01T00:02:31.025Z,99711.84
2022-09-01T00:04:58.397Z,99709.59
2022-09-01T00:07:27.184Z,99707.59
2022-09-01T00:09:53.868Z,99700.53
2022-09-01T00:12:22.682Z,99703.75
2022-09-01T00:14:49.766Z,99698.03
2022-09-01T00:17:16.297Z,99706.81
2022-09-01T00:19:42.825Z,99698.72
2022-09-01T00:22:09.292Z,99705.78
2022-09-01T00:24:36.010Z,99702.94
2022-09-01T00:27:03.674Z,99702.41
2022-09-01T00:29:30.705Z,99708.84
2022-09-01T00:31:57.187Z,99717.09
2022-09-01T00:34:23.975Z,99709.81
2022-09-01T00:36:50.611Z,99714.69
2022-09-01T00:39:17.365Z,99709.44
2022-09-01T00:41:45.256Z,99713.00
2022-09-01T00:44:16.378Z,99705.91
2022-09-01T00:46:55.643Z,99709.91
2022-09-01T00:49:31.368Z,99706.00
2022-09-01T00:52:05.802Z,99710.19
2022-09-01T00:54:35.911Z,99708.47
2022-09-01T00:57:03.673Z,99712.34
2022-09-01T00:59:30.990Z,99710.25
2022-09-01T01:01:58.131Z,99714.66
2022-09-01T01:04:25.659Z,99702.47
2022-09-01T01:07:03.538Z,99709.34
2022-09-01T01:09:36.021Z,99711.50
2022-09-01T01:12:05.179Z,99709.13
2022-09-01T01:14:32.234Z,99706.88
2022-09-01T01:17:00.747Z,99699.25
2022-09-01T01:20:02.845Z,99705.25
2022-09-01T01:23:03.625Z,99708.09
2022-09-01T01:25:39.289Z,99699.75
2022-09-01T01:28:22.301Z,99709.69
2022-09-01T01:30:52.807Z,99702.28
2022-09-01T01:33:22.561Z,99705.00
2022-09-01T01:35:51.725Z,99709.69
2022-09-01T01:38:22.816Z,99709.31
2022-09-01T01:40:51.614Z,99705.09
2022-09-01T01:43:21.643Z,99704.22
2022-09-01T01:45:52.043Z,99702.00
2022-09-01T01:48:24.424Z,99700.00
2022-09-01T01:50:53.686Z,99696.47
2022-09-01T01:53:21.686Z,99699.34
2022-09-01T01:55:49.565Z,99707.75
2022-09-01T01:58:19.810Z,99710.59
2022-09-01T02:00:50.814Z,99703.03
2022-09-01T02:03:21.995Z,99709.84
2022-09-01T02:05:51.006Z,99708.28
2022-09-01T02:08:20.739Z,99706.59
2022-09-01T02:10:50.045Z,99693.56
2022-09-01T02:13:20.879Z,99698.44
2022-09-01T02:15:50.999Z,99709.19
2022-09-01T02:18:20.904Z,99704.66
2022-09-01T02:20:49.439Z,99706.66
2022-09-01T02:23:20.118Z,99712.34
2022-09-01T02:26:14.174Z,99711.50
2022-09-01T02:28:37.084Z,99712.78
2022-09-01T02:31:05.553Z,99711.41
2022-09-01T02:33:32.533Z,99705.63
2022-09-01T02:36:03.113Z,99715.69
2022-09-01T02:38:29.890Z,99718.69
2022-09-01T02:40:58.458Z,99711.91
2022-09-01T02:43:28.271Z,99706.81
2022-09-01T02:45:59.543Z,99709.09
2022-09-01T02:48:32.918Z,99706.31
2022-09-01T02:51:01.981Z,99704.91
2022-09-01T02:53:30.798Z,99701.34
2022-09-01T02:55:59.483Z,99700.66
2022-09-01T02:58:27.730Z,99703.50
2022-09-01T03:00:57.228Z,99707.91
2022-09-01T03:03:25.069Z,99703.50
2022-09-01T03:05:56.341Z,99699.41
2022-09-01T03:08:24.605Z,99707.91
2022-09-01T03:10:53.810Z,99694.75
2022-09-01T03:13:27.352Z,99702.44
2022-09-01T03:15:53.821Z,99707.25
2022-09-01T03:18:20.679Z,99707.44
2022-09-01T03:20:48.313Z,99709.53
2022-09-01T03:23:19.224Z,99706.84
2022-09-01T03:25:47.820Z,99710.41
2022-09-01T03:28:15.303Z,99710.53
2022-09-01T03:30:51.467Z,99703.03
2022-09-01T03:33:20.317Z,99703.31
2022-09-01T03:35:47.702Z,99705.91
2022-09-01T03:38:20.917Z,99708.72
2022-09-01T03:40:48.009Z,99705.06
2022-09-01T03:43:16.837Z,99702.50
2022-09-01T03:45:43.620Z,99706.22
2022-09-01T03:48:10.955Z,99702.09
2022-09-01T03:50:41.179Z,99706.03
2022-09-01T03:53:08.358Z,99707.34
2022-09-01T03:55:38.187Z,99706.91
2022-09-01T03:58:10.079Z,99702.25
2022-09-01T04:00:45.482Z,99703.09
2022-09-01T04:03:28.888Z,99702.25
2022-09-01T04:05:59.520Z,99707.06
2022-09-01T04:08:32.370Z,99710.75
2022-09-01T04:11:16.424Z,99705.78
2022-09-01T04:13:43.006Z,99705.09
2022-09-01T04:16:38.481Z,99710.47
2022-09-01T04:19:15.839Z,99707.06
2022-09-01T04:21:44.060Z,99703.53
2022-09-01T04:24:13.327Z,99706.50
2022-09-01T04:26:41.023Z,99708.19
2022-09-01T04:29:09.075Z,99718.09
2022-09-01T04:31:38.633Z,99719.78
2022-09-01T04:34:12.540Z,99718.81
2022-09-01T04:36:41.787Z,99711.44
2022-09-01T04:39:09.435Z,99715.09
2022-09-01T04:41:45.987Z,99711.03
2022-09-01T04:44:18.857Z,99709.03
2022-09-01T04:46:48.017Z,99715.25
2022-09-01T04:49:19.445Z,99704.25
2022-09-01T04:51:53.251Z,99710.88
2022-09-01T04:54:22.534Z,99723.19
2022-09-01T04:56:51.042Z,99718.38
2022-09-01T04:59:21.618Z,99720.22
2022-09-01T05:01:50.530Z,99715.53
2022-09-01T05:04:21.242Z,99715.53
2022-09-01T05:06:57.755Z,99712.84
2022-09-01T05:09:27.103Z,99714.44
2022-09-01T05:11:53.717Z,99717.69
2022-09-01T05:14:22.374Z,99711.88
2022-09-01T05:16:50.866Z,99715.41
2022-09-01T05:19:20.752Z,99719.81
2022-09-01T05:21:48.032Z,99715.97
2022-09-01T05:24:19.824Z,99726.31
2022-09-01T05:26:47.517Z,99725.16
2022-09-01T05:29:17.696Z,99726.75
2022-09-01T05:31:46.946Z,99725.31
2022-09-01T05:34:26.229Z,99719.81
2022-09-01T05:36:55.799Z,99720.50
2022-09-01T05:39:22.461Z,99721.94
2022-09-01T05:41:49.792Z,99718.66
2022-09-01T05:44:16.972Z,99719.78
2022-09-01T05:46:44.479Z,99718.50
2022-09-01T05:49:16.833Z,99718.81
2022-09-01T05:51:50.514Z,99727.88
2022-09-01T05:54:21.419Z,99724.56
2022-09-01T05:56:49.615Z,99721.16
2022-09-01T05:59:24.702Z,99724.81
2022-09-01T06:01:53.194Z,99721.84
2022-09-01T06:04:20.271Z,99725.94
2022-09-01T06:07:06.027Z,99713.72
2022-09-01T06:09:42.459Z,99715.00
2022-09-01T06:12:19.114Z,99716.78
2022-09-01T06:14:51.207Z,99724.09
2022-09-01T06:17:21.986Z,99720.69
2022-09-01T06:19:48.937Z,99717.47
2022-09-01T06:22:16.979Z,99718.81
2022-09-01T06:24:44.922Z,99714.19
2022-09-01T06:27:12.845Z,99697.47
2022-09-01T06:29:39.761Z,99696.91
2022-09-01T06:32:12.491Z,99692.47
2022-09-01T06:34:42.696Z,99685.69
2022-09-01T06:37:13.258Z,99677.31
2022-09-01T06:39:39.799Z,99672.59
2022-09-01T06:42:06.669Z,99663.53
2022-09-01T06:44:33.854Z,99669.47
2022-09-01T06:47:00.980Z,99669.03
2022-09-01T06:49:33.101Z,99668.13
2022-09-01T06:52:00.829Z,99662.75
2022-09-01T06:54:27.308Z,99672.88
2022-09-01T06:56:53.987Z,99665.47
2022-09-01T06:59:21.693Z,99664.81
2022-09-01T07:02:01.365Z,99666.00
2022-09-01T07:04:43.094Z,99673.44
2022-09-01T07:10:18.111Z,99676.97
2022-09-01T07:13:05.564Z,99676.91
2022-09-01T07:18:21.265Z,99664.16
2022-09-01T07:23:47.417Z,99664.28
2022-09-01T07:26:26.877Z,99658.81
2022-09-01T07:32:41.163Z,99660.78
2022-09-01T07:34:38.795Z,99666.22
2022-09-01T07:39:55.428Z,99656.16
2022-09-01T07:45:26.843Z,99672.53
2022-09-01T07:47:54.769Z,99678.13
2022-09-01T07:50:38.805Z,99672.63
2022-09-01T07:53:09.024Z,99668.59
2022-09-01T07:55:35.789Z,99679.56
2022-09-01T07:58:02.429Z,99671.00
2022-09-01T08:00:31.169Z,99672.66
2022-09-01T08:02:59.073Z,99671.09
2022-09-01T08:05:27.109Z,99674.63
2022-09-01T08:07:54.517Z,99673.56
2022-09-01T08:10:21.188Z,99670.97
2022-09-01T08:12:56.246Z,99675.72
2022-09-01T08:15:40.987Z,99674.63
2022-09-01T08:18:09.256Z,99667.50
2022-09-01T08:20:39.786Z,99678.66
2022-09-01T08:23:06.949Z,99672.47
2022-09-01T08:25:37.287Z,99672.72
2022-09-01T08:28:05.017Z,99672.47
2022-09-01T08:30:32.651Z,99676.56
2022-09-01T08:33:10.257Z,99669.56
2022-09-01T08:35:39.929Z,99670.38
2022-09-01T08:38:06.490Z,99671.41
2022-09-01T08:40:33.581Z,99675.69
2022-09-01T08:43:06.283Z,99663.03
2022-09-01T08:45:50.958Z,99671.44
2022-09-01T08:51:59.032Z,99663.91
2022-09-01T08:54:44.347Z,99669.25
2022-09-01T08:57:22.002Z,99655.75
2022-09-01T08:59:48.586Z,99657.97
2022-09-01T09:02:41.540Z,99657.44
2022-09-01T09:05:27.440Z,99654.22
2022-09-01T09:08:18.702Z,99660.94
2022-09-01T09:11:10.665Z,99657.28
2022-09-01T09:14:00.717Z,99658.88
2022-09-01T09:16:42.577Z,99651.56
2022-09-01T09:19:31.206Z,99646.97
2022-09-01T09:22:02.012Z,99639.09
2022-09-01T09:24:52.886Z,99653.00
2022-09-01T09:27:33.886Z,99638.88
2022-09-01T09:30:05.878Z,99646.84
2022-09-01T09:33:24.850Z,99641.84
2022-09-01T09:35:46.732Z,99625.50
2022-09-01T09:38:21.055Z,99627.66
2022-09-01T09:41:19.953Z,99628.69
2022-09-01T09:44:11.856Z,99625.63
2022-09-01T09:46:41.822Z,99626.47
2022-09-01T09:49:36.943Z,99615.56
2022-09-01T09:52:10.305Z,99621.03
2022-09-01T09:54:59.485Z,99621.44
2022-09-01T09:57:26.027Z,99614.06
2022-09-01T09:59:59.085Z,99613.44
2022-09-01T10:02:32.062Z,99614.09
2022-09-01T10:05:00.774Z,99610.50
2022-09-01T10:07:37.302Z,99602.09
2022-09-01T10:10:25.871Z,99604.38
2022-09-01T10:12:55.821Z,99601.59
2022-09-01T10:15:26.123Z,99602.41
2022-09-01T10:18:14.100Z,99603.56
2022-09-01T10:20:53.327Z,99591.59
2022-09-01T10:23:19.895Z,99579.78
2022-09-01T10:25:50.229Z,99592.91
2022-09-01T10:28:24.555Z,99586.78
2022-09-01T10:30:54.612Z,99590.09
2022-09-01T10:33:22.715Z,99581.16
2022-09-01T10:35:53.050Z,99581.94
2022-09-01T10:38:30.232Z,99583.56
2022-09-01T10:41:10.075Z,99586.13
2022-09-01T10:43:50.453Z,99572.66
2022-09-01T10:46:38.761Z,99566.38
2022-09-01T10:49:19.656Z,99566.88
2022-09-01T10:52:25.827Z,99584.53
2022-09-01T10:54:55.833Z,99561.78
2022-09-01T10:57:51.058Z,99565.28
2022-09-01T11:00:36.605Z,99572.56
2022-09-01T11:03:35.185Z,99574.41
2022-09-01T11:06:13.183Z,99579.56
2022-09-01T11:08:51.198Z,99581.22
2022-09-01T11:11:49.022Z,99579.38
2022-09-01T11:14:22.788Z,99578.16
2022-09-01T11:17:13.295Z,99573.97
2022-09-01T11:19:58.425Z,99577.13
2022-09-01T11:22:39.636Z,99581.50
2022-09-01T11:25:38.858Z,99577.56
2022-09-01T11:28:23.615Z,99576.78
2022-09-01T11:30:55.010Z,99574.38
2022-09-01T11:33:43.186Z,99571.38
2022-09-01T11:36:18.668Z,99556.88
2022-09-01T11:38:55.117Z,99555.81
2022-09-01T11:41:33.042Z,99556.72
2022-09-01T11:44:02.314Z,99557.66
2022-09-01T11:46:35.889Z,99555.72
2022-09-01T11:49:29.169Z,99565.81
2022-09-01T11:51:57.564Z,99565.91
2022-09-01T11:54:24.913Z,99560.44
2022-09-01T11:56:51.817Z,99556.50
2022-09-01T11:59:35.254Z,99556.81
2022-09-01T12:02:01.789Z,99559.59
2022-09-01T12:04:36.660Z,99560.78
2022-09-01T12:07:07.980Z,99555.34
2022-09-01T12:09:43.102Z,99550.69
2022-09-01T12:12:34.401Z,99544.28
2022-09-01T12:15:18.854Z,99542.13
2022-09-01T12:17:46.409Z,99533.19
2022-09-01T12:20:19.660Z,99526.66
2022-09-01T12:22:46.226Z,99530.06
2022-09-01T12:25:23.210Z,99515.31
2022-09-01T12:27:53.276Z,99535.25
2022-09-01T12:30:21.576Z,99522.75
2022-09-01T12:32:48.601Z,99520.03
2022-09-01T12:35:22.001Z,99522.66
2022-09-01T12:37:50.243Z,99512.59
2022-09-01T12:40:32.044Z,99513.56
2022-09-01T12:42:59.241Z,99515.59
2022-09-01T12:45:47.519Z,99506.47
2022-09-01T12:48:30.060Z,99505.72
2022-09-01T12:51:00.545Z,99513.59
2022-09-01T12:53:31.680Z,99501.44
2022-09-01T12:56:17.083Z,99490.66
2022-09-01T12:58:48.875Z,99491.16
2022-09-01T13:01:32.411Z,99499.63
2022-09-01T13:04:13.212Z,99498.03
2022-09-01T13:06:39.923Z,99501.13
2022-09-01T13:09:06.480Z,99489.97
2022-09-01T13:14:20.314Z,99493.94
2022-09-01T13:16:46.963Z,99486.44
2022-09-01T13:19:17.973Z,99477.91
2022-09-01T13:21:48.581Z,99482.72
2022-09-01T13:24:16.160Z,99479.47
2022-09-01T13:27:20.269Z,99479.00
2022-09-01T13:29:30.833Z,99466.78
2022-09-01T13:34:45.963Z,99459.91
2022-09-01T13:37:12.429Z,99455.97
2022-09-01T13:39:39.008Z,99444.25
2022-09-01T13:42:05.929Z,99447.09
2022-09-01T13:44:33.159Z,99450.56
2022-09-01T13:47:00.592Z,99448.50
2022-09-01T13:52:14.339Z,99450.81
2022-09-01T13:54:40.930Z,99449.09
2022-09-01T13:57:07.419Z,99437.00
2022-09-01T13:59:34.135Z,99440.78
2022-09-01T14:02:01.536Z,99437.38
2022-09-01T14:04:28.255Z,99440.38
2022-09-01T14:06:54.977Z,99441.34
2022-09-01T14:09:21.770Z,99442.34
2022-09-01T14:11:48.266Z,99447.28
2022-09-01T14:14:14.893Z,99441.78
2022-09-01T14:16:41.579Z,99439.91
2022-09-01T14:19:08.311Z,99441.00
2022-09-01T14:21:34.773Z,99438.06
2022-09-01T14:24:01.522Z,99442.38
2022-09-01T14:26:28.224Z,99436.81
2022-09-01T14:28:55.018Z,99443.47
2022-09-01T14:31:22.150Z,99439.41
2022-09-01T14:33:49.730Z,99440.00
2022-09-01T14:36:22.461Z,99442.34
2022-09-01T14:38:50.450Z,99437.31
2022-09-01T14:41:22.992Z,99428.94
2022-09-01T14:43:52.211Z,99427.03
2022-09-01T14:46:20.305Z,99427.44
2022-09-01T14:48:48.706Z,99418.53
2022-09-01T14:51:25.776Z,99414.06
2022-09-01T14:53:54.428Z,99416.38
2022-09-01T14:56:22.524Z,99407.88
2022-09-01T14:58:49.805Z,99410.13
2022-09-01T15:01:34.206Z,99416.50
2022-09-01T15:04:01.505Z,99411.44
2022-09-01T15:06:28.209Z,99402.91
2022-09-01T15:08:54.969Z,99410.66
2022-09-01T15:11:21.704Z,99398.41
2022-09-01T15:13:52.050Z,99412.09
2022-09-01T15:16:22.100Z,99413.03
2022-09-01T15:18:49.648Z,99398.00
2022-09-01T15:21:24.608Z,99396.88
2022-09-01T15:23:51.946Z,99398.72
2022-09-01T15:26:18.697Z,99396.69
2022-09-01T15:28:46.322Z,99392.06
2022-09-01T15:31:14.147Z,99384.34
2022-09-01T15:33:43.968Z,99380.34
2022-09-01T15:36:16.739Z,99380.34
2022-09-01T15:38:43.430Z,99370.31
2022-09-01T15:41:15.308Z,99379.16
2022-09-01T15:43:41.741Z,99372.69
2022-09-01T15:46:08.545Z,99376.25
2022-09-01T15:48:35.089Z,99373.28
2022-09-01T15:51:23.455Z,99372.50
2022-09-01T15:53:52.622Z,99366.59
2022-09-01T15:56:20.192Z,99358.97
2022-09-01T15:59:01.111Z,99365.44
2022-09-01T16:01:31.766Z,99365.72
2022-09-01T16:03:59.069Z,99361.63
2022-09-01T16:06:26.276Z,99364.09
2022-09-01T16:08:54.766Z,99358.59
2022-09-01T16:11:25.845Z,99357.25
2022-09-01T16:13:53.746Z,99362.63
2022-09-01T16:16:33.204Z,99355.97
2022-09-01T16:19:25.319Z,99352.75
2022-09-01T16:22:10.047Z,99363.75
2022-09-01T16:24:45.354Z,99358.25
2022-09-01T16:27:18.231Z,99351.72
2022-09-01T16:29:57.589Z,99359.22
2022-09-01T16:32:24.731Z,99361.00
2022-09-01T16:34:52.308Z,99358.25
2022-09-01T16:37:37.293Z,99360.16
2022-09-01T16:40:34.547Z,99363.50
2022-09-01T16:43:21.484Z,99363.47
2022-09-01T16:46:12.525Z,99368.84
2022-09-01T16:48:50.053Z,99364.72
2022-09-01T16:51:41.657Z,99352.63
2022-09-01T16:54:24.828Z,99350.03
2022-09-01T16:57:18.484Z,99344.31
2022-09-01T16:59:58.279Z,99350.13
2022-09-01T17:02:45.233Z,99343.13
2022-09-01T17:05:19.994Z,99341.06
2022-09-01T17:08:22.346Z,99340.53
2022-09-01T17:11:18.493Z,99338.91
2022-09-01T17:13:51.756Z,99340.44
2022-09-01T17:16:30.120Z,99334.78
2022-09-01T17:18:58.318Z,99342.06
2022-09-01T17:21:45.938Z,99335.63
2022-09-01T17:24:34.066Z,99343.69
2022-09-01T17:27:07.817Z,99332.91
2022-09-01T17:29:41.045Z,99336.13
2022-09-01T17:32:21.797Z,99336.38
2022-09-01T17:34:57.259Z,99341.69
2022-09-01T17:37:56.916Z,99334.84
2022-09-01T17:40:29.541Z,99341.16
2022-09-01T17:42:56.687Z,99339.59
2022-09-01T17:45:36.021Z,99343.66
2022-09-01T17:48:18.275Z,99341.69
2022-09-01T17:50:59.543Z,99342.16
2022-09-01T17:53:37.323Z,99343.06
2022-09-01T17:56:19.330Z,99342.06
2022-09-01T17:58:55.456Z,99344.00
2022-09-01T18:01:48.246Z,99346.13
2022-09-01T18:04:42.952Z,99350.97
2022-09-01T18:07:48.243Z,99354.09
2022-09-01T18:10:20.912Z,99362.84
2022-09-01T18:12:55.529Z,99361.38
2022-09-01T18:15:23.806Z,99364.91
2022-09-01T18:18:27.446Z,99372.13
2022-09-01T18:21:04.065Z,99377.44
2022-09-01T18:23:35.580Z,99370.28
2022-09-01T18:26:32.393Z,99375.22
2022-09-01T18:29:00.969Z,99380.56
2022-09-01T18:31:33.282Z,99385.84
2022-09-01T18:34:08.977Z,99381.13
2022-09-01T18:36:59.062Z,99388.06
2022-09-01T18:39:44.757Z,99389.19
2022-09-01T18:42:53.662Z,99394.53
2022-09-01T18:45:54.274Z,99400.06
2022-09-01T18:48:53.340Z,99403.63
2022-09-01T18:51:43.152Z,99404.66
2022-09-01T18:54:18.532Z,99398.13
2022-09-01T18:56:57.050Z,99400.56
2022-09-01T19:00:07.900Z,99404.88
2022-09-01T19:02:54.737Z,99398.25
2022-09-01T19:05:44.789Z,99410.03
2022-09-01T19:08:48.361Z,99413.13
2022-09-01T19:11:29.148Z,99408.19
2022-09-01T19:14:05.692Z,99404.72
2022-09-01T19:16:36.009Z,99409.38
2022-09-01T19:19:27.397Z,99410.41
2022-09-01T19:21:55.821Z,99413.19
2022-09-01T19:24:36.109Z,99410.66
2022-09-01T19:27:21.201Z,99422.09
2022-09-01T19:29:58.731Z,99413.47
2022-09-01T19:32:28.627Z,99414.53
2022-09-01T19:35:17.112Z,99423.91
2022-09-01T19:37:47.783Z,99430.56
2022-09-01T19:40:18.292Z,99433.13
2022-09-01T19:43:15.770Z,99430.97
2022-09-01T19:46:11.844Z,99432.72
2022-09-01T19:48:49.520Z,99430.72
2022-09-01T19:51:28.884Z,99430.22
2022-09-01T19:54:08.981Z,99424.81
2022-09-01T19:57:15.745Z,99429.69
2022-09-01T20:00:02.807Z,99440.44
2022-09-01T20:02:35.682Z,99431.25
2022-09-01T20:05:09.307Z,99426.88
2022-09-01T20:07:53.219Z,99438.38
2022-09-01T20:10:59.948Z,99441.75
2022-09-01T20:13:29.567Z,99433.56
2022-09-01T20:16:09.033Z,99433.56
2022-09-01T20:18:49.116Z,99423.56
2022-09-01T20:21:20.712Z,99432.28
2022-09-01T20:24:19.923Z,99433.69
2022-09-01T20:27:02.973Z,99430.44
2022-09-01T20:29:32.448Z,99431.56
2022-09-01T20:32:01.636Z,99435.38
2022-09-01T20:34:42.201Z,99430.63
2022-09-01T20:37:26.962Z,99432.13
2022-09-01T20:39:59.944Z,99431.72
2022-09-01T20:42:57.062Z,99427.16
2022-09-01T20:45:25.897Z,99429.00
2022-09-01T20:48:03.042Z,99432.28
2022-09-01T20:50:54.366Z,99429.94
2022-09-01T20:53:51.609Z,99430.00
2022-09-01T20:56:33.215Z,99424.84
2022-09-01T20:59:13.275Z,99431.00
2022-09-01T21:01:43.368Z,99429.81
2022-09-01T21:04:15.576Z,99426.34
2022-09-01T21:06:54.453Z,99423.03
2022-09-01T21:09:46.810Z,99431.78
2022-09-01T21:12:25.649Z,99420.19
2022-09-01T21:15:17.065Z,99418.97
2022-09-01T21:18:06.689Z,99427.00
2022-09-01T21:21:20.027Z,99426.69
2022-09-01T21:23:46.596Z,99427.09
2022-09-01T21:26:13.867Z,99416.22
2022-09-01T21:28:42.996Z,99419.94
2022-09-01T21:31:11.626Z,99420.75
2022-09-01T21:33:38.360Z,99421.50
2022-09-01T21:36:05.007Z,99426.00
2022-09-01T21:38:31.526Z,99416.63
2022-09-01T21:41:00.697Z,99420.13
2022-09-01T21:43:43.835Z,99415.81
2022-09-01T21:46:13.554Z,99416.94
2022-09-01T21:48:40.525Z,99415.06
2022-09-01T21:51:07.159Z,99414.78
2022-09-01T21:53:33.824Z,99415.91
2022-09-01T21:56:00.994Z,99419.84
2022-09-01T21:58:27.568Z,99413.94
2022-09-01T22:00:54.484Z,99411.97
2022-09-01T22:03:21.283Z,99410.03
2022-09-01T22:05:47.869Z,99413.19
2022-09-01T22:08:17.272Z,99406.63
2022-09-01T22:10:49.049Z,99408.44
2022-09-01T22:13:17.016Z,99400.47
2022-09-01T22:15:46.885Z,99402.63
2022-09-01T22:18:14.537Z,99400.28
2022-09-01T22:20:41.623Z,99403.28
2022-09-01T22:23:11.205Z,99413.03
2022-09-01T22:25:42.284Z,99403.22
2022-09-01T22:28:09.958Z,99402.00
2022-09-01T22:30:36.484Z,99407.69
2022-09-01T22:33:03.726Z,99410.88
2022-09-01T22:35:30.316Z,99410.78
2022-09-01T22:37:56.826Z,99400.31
2022-09-01T22:40:23.312Z,99403.88
2022-09-01T22:42:51.859Z,99407.81
2022-09-01T22:45:18.663Z,99403.78
2022-09-01T22:47:45.312Z,99403.56
2022-09-01T22:50:11.893Z,99397.78
2022-09-01T22:52:39.666Z,99400.22
2022-09-01T22:55:08.810Z,99395.91
2022-09-01T22:57:36.791Z,99400.50
2022-09-01T23:00:08.567Z,99393.84
2022-09-01T23:02:35.611Z,99393.38
2022-09-01T23:05:02.218Z,99388.41
2022-09-01T23:07:34.976Z,99392.66
2022-09-01T23:10:01.738Z,99395.44
2022-09-01T23:12:28.346Z,99390.56
2022-09-01T23:14:55.020Z,99393.06
2022-09-01T23:17:21.604Z,99385.59
2022-09-01T23:19:48.102Z,99388.34
2022-09-01T23:22:14.925Z,99384.19
2022-09-01T23:24:41.418Z,99388.03
2022-09-01T23:27:08.204Z,99384.19
2022-09-01T23:29:36.901Z,99385.13
2022-09-01T23:32:03.993Z,99383.81
2022-09-01T23:34:30.510Z,99379.25
2022-09-01T23:36:57.091Z,99383.06
2022-09-01T23:39:23.625Z,99377.13
2022-09-01T23:41:51.739Z,99374.41
2022-09-01T23:44:18.207Z,99374.59
2022-09-01T23:46:46.196Z,99375.81
2022-09-01T23:49:15.627Z,99372.22
2022-09-01T23:51:45.712Z,99373.28
2022-09-01T23:54:13.337Z,99376.00
2022-09-01T23:56:40.432Z,99376.53
2022-09-01T23:59:07.818Z,99369.22
